Time;durP1;ratioP1;P1;durP2;ratioP2;P2;SDS_P1;SDS_P2;PMS_P1;PMS_P2;Temp;Humidity;BMP_temperature;BMP_pressure;BME280_temperature;BME280_humidity;BME280_pressure;Samples;Min_cycle;Max_cycle;Signal;HPM_P1;HPM_P2
2023/04/23 00:02:21;;;;;;;54.42;49.17;;;9.40;99.90;;;;;;5224435;28;20029;-74
2023/04/23 00:04:52;;;;;;;50.20;45.70;;;9.50;99.90;;;;;;5212465;28;20369;-74
2023/04/23 00:07:23;;;;;;;48.17;43.85;;;9.70;99.90;;;;;;5219973;28;20021;-74
2023/04/23 00:09:56;;;;;;;53.15;48.53;;;9.80;99.90;;;;;;5218842;28;20026;-75
2023/04/23 00:12:29;;;;;;;47.97;43.78;;;9.90;99.90;;;;;;5218777;28;20025;-74
2023/04/23 00:15:01;;;;;;;38.15;34.55;;;10.00;99.90;;;;;;5221101;28;20036;-74
2023/04/23 00:17:32;;;;;;;40.30;36.85;;;10.00;99.90;;;;;;5214025;28;20100;-75
2023/04/23 00:20:04;;;;;;;54.13;48.97;;;10.10;99.90;;;;;;5208988;28;20263;-73
2023/04/23 00:22:36;;;;;;;42.10;38.20;;;10.20;99.90;;;;;;5212626;28;20077;-74
2023/04/23 00:25:07;;;;;;;36.10;32.90;;;10.30;99.90;;;;;;5219656;28;20033;-74
2023/04/23 00:27:38;;;;;;;29.75;27.33;;;10.20;99.90;;;;;;5220321;28;20025;-75
2023/04/23 00:30:09;;;;;;;34.03;31.15;;;10.30;99.90;;;;;;5218081;28;20024;-74
2023/04/23 00:32:40;;;;;;;36.20;33.20;;;10.40;99.90;;;;;;5220763;28;20025;-75
2023/04/23 00:35:11;;;;;;;35.28;32.35;;;10.50;99.90;;;;;;5213780;28;20368;-73
2023/04/23 00:37:42;;;;;;;31.92;29.15;;;10.40;99.90;;;;;;5220895;28;20053;-74
2023/04/23 00:40:13;;;;;;;39.67;36.30;;;10.40;99.90;;;;;;5211697;28;20044;-74
2023/04/23 00:42:44;;;;;;;33.47;30.50;;;10.40;99.90;;;;;;5214022;28;20025;-75
2023/04/23 00:45:15;;;;;;;32.15;29.27;;;10.40;99.90;;;;;;5217668;28;20104;-75
2023/04/23 00:47:47;;;;;;;34.38;31.48;;;10.60;99.90;;;;;;5210745;28;20166;-75
2023/04/23 00:50:18;;;;;;;32.78;29.73;;;10.50;99.90;;;;;;5221534;28;20021;-75
2023/04/23 00:52:49;;;;;;;30.90;28.08;;;10.40;99.90;;;;;;5221087;28;20372;-75
2023/04/23 00:55:20;;;;;;;31.63;29.00;;;10.40;99.90;;;;;;5220311;28;20021;-75
2023/04/23 00:57:51;;;;;;;27.95;25.88;;;10.40;99.90;;;;;;5222213;28;20028;-75
2023/04/23 01:00:22;;;;;;;27.85;25.52;;;10.50;99.90;;;;;;5221321;28;20043;-74
2023/04/23 01:02:53;;;;;;;26.95;24.98;;;10.40;99.90;;;;;;5221802;28;20029;-74
2023/04/23 01:05:25;;;;;;;28.42;26.23;;;10.60;99.90;;;;;;5221002;28;20044;-75
2023/04/23 01:07:56;;;;;;;28.88;26.55;;;10.60;99.90;;;;;;5217197;28;20052;-75
2023/04/23 01:10:27;;;;;;;27.05;25.15;;;10.60;99.90;;;;;;5216562;28;20040;-74
2023/04/23 01:12:59;;;;;;;25.38;23.15;;;10.70;99.90;;;;;;5204479;28;20120;-74
2023/04/23 01:15:30;;;;;;;26.52;24.77;;;10.60;99.90;;;;;;5214249;28;20022;-74
2023/04/23 01:18:03;;;;;;;25.60;23.60;;;10.60;99.90;;;;;;5215460;28;20423;-75
2023/04/23 01:20:34;;;;;;;26.70;24.70;;;10.50;99.90;;;;;;5210441;28;20064;-75
2023/04/23 01:23:06;;;;;;;25.98;24.08;;;10.50;99.90;;;;;;5217185;28;20033;-74
2023/04/23 01:25:37;;;;;;;25.25;23.38;;;10.50;99.90;;;;;;5211618;28;20029;-75
2023/04/23 01:28:09;;;;;;;27.17;24.95;;;10.50;99.90;;;;;;5215882;28;20075;-74
2023/04/23 01:30:42;;;;;;;25.55;23.70;;;10.50;99.90;;;;;;5220848;28;20078;-74
2023/04/23 01:33:15;;;;;;;25.45;23.45;;;10.40;99.90;;;;;;5216460;28;20033;-74
2023/04/23 01:35:48;;;;;;;26.05;24.13;;;10.60;99.90;;;;;;5216274;28;20052;-74
2023/04/23 01:38:21;;;;;;;24.92;23.05;;;10.50;99.90;;;;;;5223449;28;20064;-73
2023/04/23 01:40:53;;;;;;;25.20;23.40;;;10.50;99.90;;;;;;5209538;28;20042;-74
2023/04/23 01:43:25;;;;;;;25.52;23.48;;;10.60;99.90;;;;;;5213361;28;20032;-73
2023/04/23 01:45:57;;;;;;;26.23;24.25;;;10.80;99.90;;;;;;5215687;28;20036;-74
2023/04/23 01:48:28;;;;;;;25.10;23.17;;;10.60;99.90;;;;;;5208643;28;20025;-73
2023/04/23 01:51:00;;;;;;;24.80;23.00;;;10.50;99.90;;;;;;5213059;28;21397;-74
2023/04/23 01:53:31;;;;;;;25.48;23.58;;;10.60;99.90;;;;;;5215417;28;20029;-74
2023/04/23 01:56:02;;;;;;;24.73;22.95;;;10.40;99.90;;;;;;5219130;28;20052;-74
2023/04/23 01:58:33;;;;;;;24.60;22.88;;;10.60;99.90;;;;;;5211331;28;20041;-74
2023/04/23 02:01:04;;;;;;;25.10;23.30;;;10.60;99.90;;;;;;5211798;28;20022;-75
2023/04/23 02:03:35;;;;;;;25.52;23.73;;;10.60;99.90;;;;;;5207109;28;20033;-74
2023/04/23 02:06:06;;;;;;;26.90;25.02;;;10.50;99.90;;;;;;5214771;28;20510;-74
2023/04/23 02:08:38;;;;;;;26.75;24.85;;;10.40;99.90;;;;;;5216639;28;20358;-74
2023/04/23 02:11:09;;;;;;;25.67;23.77;;;10.60;99.90;;;;;;5219645;28;20036;-75
2023/04/23 02:13:39;;;;;;;25.58;23.65;;;10.50;99.90;;;;;;5215832;28;20021;-75
2023/04/23 02:16:11;;;;;;;24.35;22.55;;;10.40;99.90;;;;;;5219213;28;20349;-75
2023/04/23 02:18:42;;;;;;;26.10;23.83;;;10.40;99.90;;;;;;5223111;28;20017;-74
2023/04/23 02:21:13;;;;;;;25.08;23.13;;;10.50;99.90;;;;;;5221235;28;20025;-73
2023/04/23 02:23:44;;;;;;;23.08;21.27;;;10.40;99.90;;;;;;5215816;28;20465;-75
2023/04/23 02:26:15;;;;;;;23.77;22.17;;;10.70;99.90;;;;;;5223876;28;20111;-75
2023/04/23 02:28:46;;;;;;;25.38;23.45;;;10.60;99.90;;;;;;5215102;28;20045;-75
2023/04/23 02:31:17;;;;;;;24.42;22.73;;;10.60;99.90;;;;;;5211928;28;20032;-74
2023/04/23 02:33:48;;;;;;;26.58;24.77;;;10.60;99.90;;;;;;5213082;28;20096;-75
2023/04/23 02:36:19;;;;;;;24.48;22.77;;;10.60;99.90;;;;;;5221380;28;20170;-75
2023/04/23 02:38:50;;;;;;;28.27;26.08;;;10.50;99.90;;;;;;5219076;28;20042;-73
2023/04/23 02:41:21;;;;;;;28.20;26.23;;;10.50;99.90;;;;;;5229159;28;20166;-72
2023/04/23 02:43:51;;;;;;;28.88;26.80;;;10.60;99.90;;;;;;5229165;28;20024;-72
2023/04/23 02:46:22;;;;;;;27.15;25.23;;;10.60;99.90;;;;;;5215248;28;20424;-73
2023/04/23 02:48:53;;;;;;;26.95;24.98;;;10.60;99.90;;;;;;5219899;28;20159;-74
2023/04/23 02:51:24;;;;;;;25.63;23.80;;;10.60;99.90;;;;;;5227608;28;20040;-73
2023/04/23 02:53:56;;;;;;;24.95;22.98;;;10.60;99.90;;;;;;5226986;28;20055;-73
2023/04/23 02:56:27;;;;;;;24.50;22.77;;;10.60;99.90;;;;;;5228394;28;20029;-73
2023/04/23 02:58:58;;;;;;;26.58;24.83;;;10.70;99.90;;;;;;5228372;28;20039;-75
2023/04/23 03:01:29;;;;;;;24.15;22.48;;;10.70;99.90;;;;;;5223956;28;20099;-75
2023/04/23 03:04:00;;;;;;;23.67;21.90;;;10.80;99.90;;;;;;5227230;28;20516;-75
2023/04/23 03:06:33;;;;;;;24.88;23.25;;;10.70;99.90;;;;;;5227190;28;20025;-74
2023/04/23 03:09:04;;;;;;;25.13;23.33;;;10.80;99.90;;;;;;5228555;28;20353;-74
2023/04/23 03:11:35;;;;;;;25.40;23.60;;;10.80;99.90;;;;;;5225744;28;20086;-75
2023/04/23 03:14:05;;;;;;;29.30;27.40;;;10.70;99.90;;;;;;5228362;28;20035;-74
2023/04/23 03:16:36;;;;;;;26.13;24.23;;;10.60;99.90;;;;;;5228503;28;20033;-75
2023/04/23 03:19:07;;;;;;;23.70;22.08;;;10.60;99.90;;;;;;5228065;28;20029;-73
2023/04/23 03:21:38;;;;;;;23.77;22.23;;;10.50;99.90;;;;;;5224468;28;20033;-74
2023/04/23 03:24:11;;;;;;;23.02;21.50;;;10.60;99.90;;;;;;5223448;28;20051;-73
2023/04/23 03:26:42;;;;;;;21.95;20.25;;;10.50;99.90;;;;;;5227558;28;20033;-74
2023/04/23 03:29:13;;;;;;;23.73;22.20;;;10.60;99.90;;;;;;5228179;28;20021;-73
2023/04/23 03:31:44;;;;;;;23.88;22.48;;;10.80;99.90;;;;;;5227270;28;20384;-74
2023/04/23 03:34:15;;;;;;;21.90;20.40;;;10.70;99.90;;;;;;5227939;28;20048;-73
2023/04/23 03:36:47;;;;;;;22.75;21.33;;;10.70;99.90;;;;;;5223028;28;20384;-73
2023/04/23 03:39:18;;;;;;;22.85;21.45;;;10.80;99.90;;;;;;5208628;28;20500;-73
2023/04/23 03:41:49;;;;;;;23.10;21.70;;;10.70;99.90;;;;;;5226218;28;20033;-72
2023/04/23 03:44:20;;;;;;;22.80;21.50;;;10.70;99.90;;;;;;5226351;28;20025;-75
2023/04/23 03:46:51;;;;;;;22.50;21.05;;;10.70;99.90;;;;;;5227616;28;20088;-72
2023/04/23 03:49:22;;;;;;;21.20;19.92;;;10.60;99.90;;;;;;5227568;28;20025;-73
2023/04/23 03:51:53;;;;;;;24.42;22.77;;;10.70;99.90;;;;;;5225732;28;20027;-72
2023/04/23 03:54:25;;;;;;;21.00;19.60;;;10.60;99.90;;;;;;5227419;28;20028;-72
2023/04/23 03:56:56;;;;;;;24.35;22.58;;;10.70;99.90;;;;;;5226316;28;20473;-73
2023/04/23 03:59:27;;;;;;;23.23;21.70;;;10.80;99.90;;;;;;5227701;28;20045;-75
2023/04/23 04:01:58;;;;;;;23.00;21.30;;;10.60;99.90;;;;;;5227226;28;20052;-74
2023/04/23 04:04:30;;;;;;;24.60;22.98;;;10.70;99.90;;;;;;5218788;28;20037;-73
2023/04/23 04:07:01;;;;;;;26.92;25.25;;;10.70;99.90;;;;;;5210900;28;20067;-73
2023/04/23 04:09:32;;;;;;;25.67;24.15;;;10.60;99.90;;;;;;5226918;28;20423;-73
2023/04/23 04:12:03;;;;;;;23.13;21.65;;;10.80;99.90;;;;;;5226001;28;20033;-74
2023/04/23 04:14:33;;;;;;;23.27;21.75;;;10.90;99.90;;;;;;5226118;28;20120;-73
2023/04/23 04:17:04;;;;;;;25.38;23.60;;;10.80;99.90;;;;;;5227114;28;20104;-73
2023/04/23 04:19:35;;;;;;;25.23;23.83;;;11.00;99.90;;;;;;5225722;28;20033;-73
2023/04/23 04:22:06;;;;;;;24.45;22.83;;;10.70;99.90;;;;;;5226930;28;20071;-73
2023/04/23 04:24:37;;;;;;;22.90;21.50;;;10.80;99.90;;;;;;5226528;28;20035;-73
2023/04/23 04:27:08;;;;;;;24.15;22.60;;;10.80;99.90;;;;;;5225644;28;20035;-72
2023/04/23 04:29:41;;;;;;;25.85;24.05;;;10.90;99.90;;;;;;5226725;28;20033;-75
2023/04/23 04:32:12;;;;;;;25.45;23.92;;;10.90;99.90;;;;;;5225723;28;20213;-73
2023/04/23 04:34:43;;;;;;;23.73;22.23;;;10.90;99.90;;;;;;5226120;28;20037;-73
2023/04/23 04:37:14;;;;;;;22.13;20.60;;;10.80;99.90;;;;;;5215638;28;20028;-72
2023/04/23 04:39:45;;;;;;;25.05;23.42;;;10.80;99.90;;;;;;5205896;28;20053;-73
2023/04/23 04:42:16;;;;;;;24.95;23.27;;;10.90;99.90;;;;;;5219568;28;20033;-75
2023/04/23 04:44:47;;;;;;;26.38;24.80;;;10.90;99.90;;;;;;5212409;28;20045;-73
2023/04/23 04:47:18;;;;;;;29.98;28.08;;;10.80;99.90;;;;;;5204627;28;20030;-72
2023/04/23 04:49:49;;;;;;;26.23;24.38;;;10.90;99.90;;;;;;5205787;28;20071;-72
2023/04/23 04:52:20;;;;;;;25.77;23.95;;;11.00;99.90;;;;;;5205946;28;20099;-72
2023/04/23 04:54:51;;;;;;;25.17;23.48;;;11.00;99.90;;;;;;5224807;28;20033;-72
2023/04/23 04:57:22;;;;;;;26.10;24.30;;;10.90;99.90;;;;;;5226761;28;20731;-72
2023/04/23 04:59:52;;;;;;;25.85;24.13;;;11.00;99.90;;;;;;5226713;28;20036;-71
2023/04/23 05:02:23;;;;;;;27.50;25.73;;;11.00;99.90;;;;;;5219773;28;20076;-72
2023/04/23 05:04:54;;;;;;;29.67;27.88;;;11.10;99.90;;;;;;5205927;28;20014;-72
2023/04/23 05:07:25;;;;;;;28.73;26.92;;;11.30;99.90;;;;;;5215880;28;20039;-72
2023/04/23 05:09:56;;;;;;;29.05;27.15;;;11.30;99.90;;;;;;5226185;28;20057;-72
2023/04/23 05:12:27;;;;;;;30.42;28.25;;;11.30;99.90;;;;;;5208836;28;20469;-72
2023/04/23 05:14:57;;;;;;;27.25;25.58;;;11.40;99.90;;;;;;5225230;28;20021;-72
2023/04/23 05:17:28;;;;;;;33.50;31.30;;;11.50;99.90;;;;;;5214260;28;20425;-72
2023/04/23 05:19:59;;;;;;;29.00;27.13;;;11.40;99.90;;;;;;5205968;28;20041;-72
2023/04/23 05:22:30;;;;;;;31.90;29.88;;;11.50;99.90;;;;;;5218872;28;20435;-73
2023/04/23 05:25:01;;;;;;;35.17;32.67;;;11.50;99.90;;;;;;5221315;28;20032;-72
2023/04/23 05:27:32;;;;;;;32.10;29.90;;;11.60;99.90;;;;;;5226330;28;20029;-72
2023/04/23 05:30:06;;;;;;;31.58;29.70;;;11.60;99.90;;;;;;5226383;28;20029;-73
2023/04/23 05:32:38;;;;;;;31.45;29.38;;;11.70;99.90;;;;;;5207151;28;20029;-72
2023/04/23 05:35:09;;;;;;;36.00;33.78;;;11.80;99.90;;;;;;5205351;28;20033;-73
2023/04/23 05:37:40;;;;;;;33.25;31.35;;;11.80;99.90;;;;;;5212217;28;20041;-72
2023/04/23 05:40:12;;;;;;;35.92;33.85;;;11.90;99.90;;;;;;5209534;28;20037;-73
2023/04/23 05:42:42;;;;;;;37.13;34.65;;;11.90;99.90;;;;;;5209511;28;20124;-74
2023/04/23 05:45:13;;;;;;;36.28;33.88;;;11.80;99.90;;;;;;5209606;28;20516;-74
2023/04/23 05:47:44;;;;;;;34.60;32.45;;;12.00;99.90;;;;;;5220656;28;20029;-74
2023/04/23 05:50:15;;;;;;;38.72;36.28;;;11.90;99.90;;;;;;5228108;28;20080;-72
2023/04/23 05:52:46;;;;;;;43.50;40.40;;;12.10;99.90;;;;;;5229887;28;20480;-74
2023/04/23 05:55:19;;;;;;;39.15;36.65;;;12.30;99.90;;;;;;5229627;28;20041;-75
2023/04/23 05:57:50;;;;;;;38.28;35.88;;;12.30;99.90;;;;;;5221068;28;20076;-73
2023/04/23 06:00:21;;;;;;;37.00;34.70;;;12.40;99.90;;;;;;5208914;28;20489;-73
2023/04/23 06:02:51;;;;;;;36.70;34.40;;;12.50;99.90;;;;;;5217580;28;20521;-74
2023/04/23 06:05:22;;;;;;;37.13;34.40;;;12.70;99.90;;;;;;5229710;28;20639;-74
2023/04/23 06:07:53;;;;;;;38.03;35.72;;;12.80;99.90;;;;;;5228441;28;20040;-73
2023/04/23 06:10:24;;;;;;;36.30;34.20;;;12.40;99.90;;;;;;5229556;28;20025;-75
2023/04/23 06:12:55;;;;;;;35.60;33.15;;;12.40;99.90;;;;;;5227195;28;20047;-75
2023/04/23 06:15:26;;;;;;;36.35;33.85;;;12.40;99.90;;;;;;5228009;28;20496;-75
2023/04/23 06:17:56;;;;;;;36.03;33.65;;;12.80;99.90;;;;;;5228051;28;20112;-73
2023/04/23 06:20:28;;;;;;;34.22;31.80;;;13.20;99.90;;;;;;5228778;28;20806;-75
2023/04/23 06:22:59;;;;;;;31.60;29.40;;;13.10;99.90;;;;;;5227669;28;20034;-73
2023/04/23 06:25:29;;;;;;;34.13;31.88;;;13.00;99.90;;;;;;5229137;28;20047;-73
2023/04/23 06:28:00;;;;;;;30.98;28.80;;;12.80;99.90;;;;;;5216236;28;20047;-72
2023/04/23 06:30:31;;;;;;;34.80;32.58;;;12.70;99.90;;;;;;5218425;28;20460;-72
2023/04/23 06:33:02;;;;;;;35.42;33.13;;;12.60;99.90;;;;;;5229147;28;20099;-73
2023/04/23 06:35:33;;;;;;;32.25;30.17;;;12.70;99.90;;;;;;5228082;28;20025;-75
2023/04/23 06:38:05;;;;;;;34.13;31.95;;;12.80;99.90;;;;;;5216160;28;20041;-73
2023/04/23 06:40:35;;;;;;;33.65;31.40;;;12.80;99.90;;;;;;5219582;28;20037;-73
2023/04/23 06:43:06;;;;;;;34.70;32.40;;;13.10;99.90;;;;;;5228883;28;20028;-72
2023/04/23 06:45:37;;;;;;;34.42;32.10;;;13.00;99.90;;;;;;5228867;28;20024;-72
2023/04/23 06:48:08;;;;;;;32.85;30.17;;;13.00;99.90;;;;;;5228246;28;20036;-72
2023/04/23 06:50:39;;;;;;;32.50;30.13;;;12.80;99.90;;;;;;5227988;28;20082;-72
2023/04/23 06:53:10;;;;;;;29.52;27.48;;;13.40;99.90;;;;;;5227488;28;20021;-75
2023/04/23 06:55:41;;;;;;;28.20;26.23;;;13.40;99.90;;;;;;5211974;28;20033;-72
2023/04/23 06:58:11;;;;;;;29.52;27.60;;;13.20;99.90;;;;;;5208431;28;20022;-73
2023/04/23 07:00:42;;;;;;;30.85;28.55;;;13.10;99.90;;;;;;5209064;28;20044;-75
2023/04/23 07:03:13;;;;;;;30.00;27.73;;;13.50;99.90;;;;;;5226699;28;20115;-73
2023/04/23 07:05:44;;;;;;;32.08;29.88;;;13.70;99.90;;;;;;5213958;28;20063;-74
2023/04/23 07:08:15;;;;;;;31.25;28.98;;;13.30;99.90;;;;;;5207646;28;20029;-73
2023/04/23 07:10:46;;;;;;;30.35;28.15;;;13.40;99.90;;;;;;5207809;28;20485;-74
2023/04/23 07:13:17;;;;;;;30.92;28.60;;;13.30;99.90;;;;;;5208174;28;20033;-73
2023/04/23 07:15:48;;;;;;;30.33;28.38;;;13.80;99.90;;;;;;5212847;28;20388;-73
2023/04/23 07:18:19;;;;;;;28.65;26.70;;;13.80;99.90;;;;;;5226300;28;20033;-73
2023/04/23 07:20:50;;;;;;;28.90;26.90;;;13.70;99.90;;;;;;5228717;28;20503;-74
2023/04/23 07:23:20;;;;;;;30.42;28.00;;;13.70;99.90;;;;;;5228482;28;20469;-74
2023/04/23 07:25:51;;;;;;;31.02;28.92;;;13.70;99.90;;;;;;5228332;28;20025;-74
2023/04/23 07:28:22;;;;;;;30.27;27.63;;;13.90;99.90;;;;;;5227969;28;21065;-75
2023/04/23 07:30:53;;;;;;;28.30;26.33;;;14.10;99.90;;;;;;5228005;28;20037;-75
2023/04/23 07:33:24;;;;;;;28.70;26.48;;;13.80;99.90;;;;;;5227165;28;20025;-72
2023/04/23 07:35:55;;;;;;;30.10;27.73;;;13.50;99.90;;;;;;5226939;28;20028;-73
2023/04/23 07:38:25;;;;;;;29.95;27.45;;;13.90;99.90;;;;;;5227488;28;20049;-74
2023/04/23 07:40:56;;;;;;;28.55;26.30;;;13.80;99.90;;;;;;5226291;28;20041;-75
2023/04/23 07:43:27;;;;;;;32.75;30.33;;;13.60;99.90;;;;;;5225222;28;20806;-74
2023/04/23 07:45:58;;;;;;;28.92;26.67;;;14.10;99.90;;;;;;5219007;28;20026;-75
2023/04/23 07:48:29;;;;;;;29.80;27.73;;;13.80;99.90;;;;;;5207880;28;20025;-74
2023/04/23 07:51:01;;;;;;;30.73;28.15;;;14.30;99.90;;;;;;5207482;28;20029;-72
2023/04/23 07:53:32;;;;;;;25.52;23.27;;;14.40;99.90;;;;;;5222711;28;20024;-73
2023/04/23 07:56:03;;;;;;;25.13;23.23;;;14.30;99.90;;;;;;5214045;28;20112;-74
2023/04/23 07:58:34;;;;;;;27.10;25.15;;;14.20;99.90;;;;;;5227691;28;20677;-75
2023/04/23 08:01:05;;;;;;;26.25;24.40;;;14.20;99.90;;;;;;5225208;28;20041;-73
2023/04/23 08:03:36;;;;;;;25.70;23.73;;;14.40;99.90;;;;;;5216307;28;20485;-77
2023/04/23 08:06:06;;;;;;;26.15;23.98;;;14.30;99.90;;;;;;5205405;28;20065;-73
2023/04/23 08:08:38;;;;;;;23.40;21.55;;;14.60;99.90;;;;;;5206565;28;20025;-73
2023/04/23 08:11:09;;;;;;;25.73;23.65;;;14.20;99.90;;;;;;5206673;28;20156;-73
2023/04/23 08:13:40;;;;;;;26.02;24.02;;;14.10;99.90;;;;;;5214333;28;20468;-77
2023/04/23 08:16:11;;;;;;;28.50;26.70;;;14.00;99.90;;;;;;5224974;28;20055;-73
2023/04/23 08:18:42;;;;;;;29.13;27.10;;;13.70;99.90;;;;;;5226747;28;20391;-75
2023/04/23 08:21:13;;;;;;;28.77;26.58;;;13.70;99.90;;;;;;5225374;28;20492;-73
2023/04/23 08:23:44;;;;;;;26.35;24.20;;;13.90;99.90;;;;;;5227130;28;20075;-73
2023/04/23 08:26:15;;;;;;;26.90;24.90;;;14.10;99.90;;;;;;5226488;28;20037;-73
2023/04/23 08:28:46;;;;;;;27.13;24.88;;;14.80;99.90;;;;;;5227249;28;20013;-72
2023/04/23 08:31:17;;;;;;;24.85;22.85;;;15.20;99.90;;;;;;5221615;28;20103;-74
2023/04/23 08:33:48;;;;;;;24.60;22.80;;;14.80;99.90;;;;;;5206265;28;20033;-75
2023/04/23 08:36:18;;;;;;;26.13;23.50;;;14.70;99.90;;;;;;5209533;28;20032;-73
2023/04/23 08:38:49;;;;;;;23.77;21.58;;;14.30;99.90;;;;;;5226651;28;20038;-73
2023/04/23 08:41:25;;;;;;;23.90;22.08;;;14.50;99.90;;;;;;5220671;28;20119;-76
2023/04/23 08:44:14;;;;;;;24.45;22.65;;;14.50;99.90;;;;;;5226416;28;20047;-76
2023/04/23 08:46:45;;;;;;;24.70;22.20;;;14.50;99.90;;;;;;5224184;28;20090;-73
2023/04/23 08:49:18;;;;;;;24.77;22.98;;;14.40;99.90;;;;;;5226602;28;20032;-77
2023/04/23 08:51:58;;;;;;;23.42;21.33;;;14.60;99.90;;;;;;5225695;28;20028;-77
2023/04/23 08:54:36;;;;;;;22.95;21.08;;;15.00;99.90;;;;;;5222010;28;20071;-77
2023/04/23 08:57:08;;;;;;;22.67;21.08;;;14.90;99.90;;;;;;5213083;28;20557;-76
2023/04/23 08:59:40;;;;;;;20.73;19.33;;;15.10;99.90;;;;;;5224310;28;20025;-72
2023/04/23 09:02:11;;;;;;;23.05;20.98;;;14.70;99.90;;;;;;5219486;28;20029;-76
2023/04/23 09:04:45;;;;;;;20.85;19.02;;;14.50;99.90;;;;;;5225114;28;20029;-74
2023/04/23 09:07:16;;;;;;;23.98;21.70;;;14.50;99.90;;;;;;5226350;28;20041;-77
2023/04/23 09:09:47;;;;;;;23.77;21.65;;;14.60;99.90;;;;;;5219576;28;20017;-78
2023/04/23 09:12:20;;;;;;;23.10;21.17;;;14.50;99.90;;;;;;5224747;28;20425;-78
2023/04/23 09:14:52;;;;;;;21.77;20.27;;;14.70;99.90;;;;;;5230887;28;20047;-77
2023/04/23 09:17:27;;;;;;;25.83;23.13;;;14.60;99.90;;;;;;5230807;28;20469;-77
2023/04/23 09:19:58;;;;;;;31.52;22.15;;;14.40;99.90;;;;;;5225772;28;20041;-76
2023/04/23 09:22:47;;;;;;;21.13;19.48;;;14.80;99.90;;;;;;5225015;28;20048;-76
2023/04/23 09:25:20;;;;;;;23.75;21.67;;;14.70;99.90;;;;;;5211676;28;20030;-74
2023/04/23 09:27:52;;;;;;;25.10;23.08;;;14.30;99.90;;;;;;5229066;28;20040;-74
2023/04/23 09:30:25;;;;;;;23.63;21.85;;;15.10;99.90;;;;;;5211422;28;20045;-75
2023/04/23 09:32:56;;;;;;;24.73;22.88;;;15.00;99.90;;;;;;5215189;28;20461;-76
2023/04/23 09:35:27;;;;;;;22.30;20.80;;;15.30;99.90;;;;;;5230398;28;20053;-76
2023/04/23 09:38:04;;;;;;;23.17;21.55;;;14.90;99.90;;;;;;5218380;28;20086;-77
2023/04/23 09:40:36;;;;;;;23.75;21.88;;;14.80;99.90;;;;;;5225754;28;20420;-76
2023/04/23 09:43:10;;;;;;;24.70;22.85;;;15.50;99.90;;;;;;5227662;28;20502;-72
2023/04/23 09:45:48;;;;;;;21.50;19.77;;;15.00;99.90;;;;;;5225745;28;20024;-73
2023/04/23 09:48:20;;;;;;;22.67;21.02;;;15.70;99.90;;;;;;5225988;28;20021;-77
2023/04/23 09:50:54;;;;;;;22.83;21.02;;;15.80;99.90;;;;;;5227999;28;20021;-76
2023/04/23 09:53:26;;;;;;;20.60;18.92;;;15.50;99.90;;;;;;5219022;28;20030;-76
2023/04/23 09:55:57;;;;;;;21.15;19.50;;;15.80;99.90;;;;;;5213558;28;20030;-73
2023/04/23 09:58:29;;;;;;;21.67;19.90;;;15.70;99.90;;;;;;5218433;28;20025;-73
2023/04/23 10:01:08;;;;;;;21.38;19.73;;;16.00;99.90;;;;;;5216725;28;20046;-74
2023/04/23 10:03:42;;;;;;;21.75;20.05;;;16.30;99.90;;;;;;5228285;28;20025;-74
2023/04/23 10:06:14;;;;;;;20.05;18.42;;;15.00;99.90;;;;;;5218697;28;20497;-74
2023/04/23 10:08:45;;;;;;;20.15;18.52;;;15.20;99.90;;;;;;5208834;28;20021;-74
2023/04/23 10:11:16;;;;;;;23.15;21.05;;;15.40;99.90;;;;;;5218562;28;20076;-77
2023/04/23 10:13:48;;;;;;;21.15;19.70;;;15.40;99.90;;;;;;5226790;28;20409;-73
2023/04/23 10:16:21;;;;;;;22.95;20.77;;;15.70;99.90;;;;;;5228412;28;20361;-74
2023/04/23 10:18:54;;;;;;;21.90;20.15;;;15.90;99.90;;;;;;5223479;28;20029;-74
2023/04/23 10:21:28;;;;;;;18.65;17.08;;;16.60;99.90;;;;;;5223174;28;20521;-74
2023/04/23 10:24:01;;;;;;;20.67;19.23;;;16.50;99.90;;;;;;5217895;28;20584;-77
2023/04/23 10:26:33;;;;;;;21.58;19.83;;;16.70;99.90;;;;;;5211913;28;20040;-74
2023/04/23 10:29:06;;;;;;;21.02;19.42;;;17.00;99.90;;;;;;5212711;28;20111;-73
2023/04/23 10:31:38;;;;;;;22.75;20.70;;;16.30;99.90;;;;;;5220869;28;20476;-73
2023/04/23 10:34:10;;;;;;;20.23;18.73;;;16.20;99.90;;;;;;5226975;28;20025;-74
2023/04/23 10:36:41;;;;;;;18.83;17.42;;;16.70;99.90;;;;;;5228302;28;20029;-74
2023/04/23 10:39:13;;;;;;;22.05;20.48;;;16.40;99.90;;;;;;5225345;28;20064;-74
2023/04/23 10:41:45;;;;;;;22.73;20.92;;;16.30;99.90;;;;;;5228331;28;20519;-75
2023/04/23 10:44:16;;;;;;;22.70;20.48;;;16.50;99.90;;;;;;5228672;28;20021;-75
2023/04/23 10:46:52;;;;;;;20.75;19.30;;;16.80;99.90;;;;;;5226996;28;20040;-75
2023/04/23 10:49:24;;;;;;;17.65;16.05;;;16.30;99.90;;;;;;5227044;28;20409;-76
2023/04/23 10:52:09;;;;;;;20.63;19.02;;;16.40;99.90;;;;;;5223708;28;20065;-73
2023/04/23 10:54:41;;;;;;;21.30;19.55;;;16.60;99.90;;;;;;5205974;28;20029;-76
2023/04/23 10:57:12;;;;;;;22.77;20.83;;;16.60;99.90;;;;;;5218015;28;20096;-75
2023/04/23 10:59:52;;;;;;;22.60;20.88;;;16.60;99.90;;;;;;5207276;28;20539;-75
2023/04/23 11:02:43;;;;;;;21.70;19.98;;;16.50;99.90;;;;;;5207409;28;20358;-75
2023/04/23 11:05:17;;;;;;;22.67;20.98;;;16.60;99.90;;;;;;5207242;28;20022;-76
2023/04/23 11:08:14;;;;;;;22.48;20.58;;;16.70;99.90;;;;;;5207009;28;20057;-75
2023/04/23 11:10:55;;;;;;;22.95;21.17;;;16.30;99.90;;;;;;5218057;28;20052;-73
2023/04/23 11:13:28;;;;;;;22.52;21.13;;;16.70;99.90;;;;;;5207028;28;20060;-73
2023/04/23 11:16:17;;;;;;;22.40;20.73;;;17.00;99.90;;;;;;5209074;28;20017;-75
2023/04/23 11:19:02;;;;;;;20.70;19.02;;;16.80;99.90;;;;;;5218939;28;20033;-75
2023/04/23 11:22:07;;;;;;;23.55;21.88;;;16.70;99.90;;;;;;5214338;28;20065;-74
2023/04/23 11:24:43;;;;;;;22.45;20.38;;;17.00;99.90;;;;;;5216180;28;20025;-73
2023/04/23 11:27:16;;;;;;;24.33;22.48;;;16.70;99.90;;;;;;5216476;28;20414;-73
2023/04/23 11:29:47;;;;;;;23.38;21.52;;;16.60;99.90;;;;;;5223002;28;20057;-75
2023/04/23 11:32:18;;;;;;;20.27;18.65;;;15.90;99.90;;;;;;5225006;28;20492;-75
2023/04/23 11:34:49;;;;;;;22.35;20.27;;;15.60;99.90;;;;;;5206830;28;20037;-75
2023/04/23 11:37:20;;;;;;;21.90;19.85;;;16.00;99.90;;;;;;5206379;28;20026;-74
2023/04/23 11:39:51;;;;;;;21.70;19.83;;;16.30;99.90;;;;;;5207207;28;20465;-75
2023/04/23 11:42:22;;;;;;;22.90;21.02;;;16.70;99.90;;;;;;5207899;28;20080;-73
2023/04/23 11:44:53;;;;;;;22.48;20.52;;;16.50;99.90;;;;;;5206362;28;20021;-73
2023/04/23 11:47:25;;;;;;;19.58;18.10;;;16.40;99.90;;;;;;5227808;28;20032;-74
2023/04/23 11:49:56;;;;;;;20.40;18.45;;;16.50;99.90;;;;;;5226205;28;20025;-75
2023/04/23 11:52:27;;;;;;;20.92;19.40;;;16.80;99.90;;;;;;5221065;28;20134;-74
2023/04/23 11:55:03;;;;;;;20.63;19.13;;;16.50;99.90;;;;;;5207081;28;20044;-75
2023/04/23 11:57:44;;;;;;;20.83;19.35;;;16.50;99.90;;;;;;5206876;28;20079;-74
2023/04/23 12:00:20;;;;;;;23.48;21.52;;;16.50;99.90;;;;;;5206856;28;20536;-76
2023/04/23 12:02:58;;;;;;;21.85;19.83;;;16.90;99.90;;;;;;5206462;28;20066;-73
2023/04/23 12:05:32;;;;;;;22.38;20.77;;;16.40;99.90;;;;;;5215108;28;20082;-75
2023/04/23 12:08:17;;;;;;;24.42;22.17;;;16.10;99.90;;;;;;5227345;28;20419;-72
2023/04/23 12:10:53;;;;;;;23.75;21.92;;;16.50;99.90;;;;;;5225432;28;20066;-73
2023/04/23 12:13:28;;;;;;;24.00;22.25;;;16.30;99.90;;;;;;5213200;28;20476;-73
2023/04/23 12:16:04;;;;;;;23.77;22.05;;;16.00;99.90;;;;;;5226145;28;20460;-72
2023/04/23 12:18:41;;;;;;;22.02;20.48;;;16.40;99.90;;;;;;5227132;28;20036;-72
2023/04/23 12:21:12;;;;;;;22.80;20.90;;;16.40;99.90;;;;;;5226732;28;20040;-72
2023/04/23 12:23:43;;;;;;;22.13;20.42;;;16.30;99.90;;;;;;5226611;28;20044;-72
2023/04/23 12:26:15;;;;;;;22.23;20.35;;;16.60;99.90;;;;;;5226988;28;20472;-73
2023/04/23 12:28:58;;;;;;;22.38;20.60;;;16.60;99.90;;;;;;5226681;28;20036;-72
2023/04/23 12:31:29;;;;;;;22.08;20.52;;;16.50;99.90;;;;;;5242096;28;20094;-76
2023/04/23 12:34:08;;;;;;;25.25;23.25;;;16.70;99.90;;;;;;5206051;28;20018;-72
2023/04/23 12:36:42;;;;;;;23.92;22.02;;;16.50;99.90;;;;;;5206560;28;20104;-72
2023/04/23 12:39:32;;;;;;;24.00;22.20;;;16.60;99.90;;;;;;5205858;28;20037;-72
2023/04/23 12:42:05;;;;;;;21.65;20.02;;;16.30;99.90;;;;;;5206460;28;20057;-73
2023/04/23 12:44:37;;;;;;;23.50;21.73;;;16.40;99.90;;;;;;5204903;28;20018;-72
2023/04/23 12:47:18;;;;;;;24.23;22.33;;;16.70;99.90;;;;;;5205519;28;20030;-74
2023/04/23 12:49:52;;;;;;;22.75;20.85;;;16.80;99.90;;;;;;5206199;28;20056;-71
2023/04/23 12:52:22;;;;;;;23.17;21.70;;;16.50;99.90;;;;;;5206395;28;20026;-72
2023/04/23 12:54:55;;;;;;;23.25;21.58;;;16.90;99.90;;;;;;5206133;28;20088;-73